sensor_id;sensor_type;location;lat;lon;timestamp;pressure;altitude;pressure_sealevel;temperature
18161;BMP280;9205;52.032;4.314;2024-01-30T00:00:34;102465.31;;;11.15
18161;BMP280;9205;52.032;4.314;2024-01-30T00:03:02;102469.53;;;11.14
18161;BMP280;9205;52.032;4.314;2024-01-30T00:05:29;102461.88;;;11.08
18161;BMP280;9205;52.032;4.314;2024-01-30T00:07:56;102448.34;;;11.14
18161;BMP280;9205;52.032;4.314;2024-01-30T00:10:23;102447.47;;;11.18
18161;BMP280;9205;52.032;4.314;2024-01-30T00:12:50;102441.53;;;11.19
18161;BMP280;9205;52.032;4.314;2024-01-30T00:15:19;102444.09;;;11.17
18161;BMP280;9205;52.032;4.314;2024-01-30T00:17:47;102448.31;;;11.11
18161;BMP280;9205;52.032;4.314;2024-01-30T00:20:14;102437.34;;;11.13
18161;BMP280;9205;52.032;4.314;2024-01-30T00:22:41;102443.25;;;11.08
18161;BMP280;9205;52.032;4.314;2024-01-30T00:25:09;102441.56;;;11.10
18161;BMP280;9205;52.032;4.314;2024-01-30T00:27:36;102437.31;;;11.12
18161;BMP280;9205;52.032;4.314;2024-01-30T00:30:04;102445.78;;;11.14
18161;BMP280;9205;52.032;4.314;2024-01-30T00:32:34;102451.75;;;11.16
18161;BMP280;9205;52.032;4.314;2024-01-30T00:35:01;102445.81;;;11.17
18161;BMP280;9205;52.032;4.314;2024-01-30T00:37:28;102448.34;;;11.20
18161;BMP280;9205;52.032;4.314;2024-01-30T00:39:57;102454.28;;;11.16
18161;BMP280;9205;52.032;4.314;2024-01-30T00:42:24;102450.91;;;11.17
18161;BMP280;9205;52.032;4.314;2024-01-30T00:44:52;102461.06;;;11.15
18161;BMP280;9205;52.032;4.314;2024-01-30T00:47:19;102458.50;;;11.11
18161;BMP280;9205;52.032;4.314;2024-01-30T00:49:47;102450.88;;;11.15
18161;BMP280;9205;52.032;4.314;2024-01-30T00:52:15;102449.19;;;11.17
18161;BMP280;9205;52.032;4.314;2024-01-30T00:54:42;102451.72;;;11.17
18161;BMP280;9205;52.032;4.314;2024-01-30T00:57:09;102447.50;;;11.13
18161;BMP280;9205;52.032;4.314;2024-01-30T00:59:37;102448.34;;;11.20
18161;BMP280;9205;52.032;4.314;2024-01-30T01:02:04;102451.75;;;11.25
18161;BMP280;9205;52.032;4.314;2024-01-30T01:04:31;102445.81;;;11.24
18161;BMP280;9205;52.032;4.314;2024-01-30T01:06:59;102439.84;;;11.22
18161;BMP280;9205;52.032;4.314;2024-01-30T01:09:27;102439.00;;;11.23
18161;BMP280;9205;52.032;4.314;2024-01-30T01:11:54;102439.03;;;11.25
18161;BMP280;9205;52.032;4.314;2024-01-30T01:14:21;102435.63;;;11.24
18161;BMP280;9205;52.032;4.314;2024-01-30T01:16:48;102419.50;;;11.27
18161;BMP280;9205;52.032;4.314;2024-01-30T01:19:15;102399.16;;;11.31
18161;BMP280;9205;52.032;4.314;2024-01-30T01:21:43;102412.72;;;11.39
18161;BMP280;9205;52.032;4.314;2024-01-30T01:24:11;102396.59;;;11.36
18161;BMP280;9205;52.032;4.314;2024-01-30T01:26:38;102405.97;;;11.40
18161;BMP280;9205;52.032;4.314;2024-01-30T01:29:06;102412.75;;;11.41
18161;BMP280;9205;52.032;4.314;2024-01-30T01:31:36;102414.41;;;11.36
18161;BMP280;9205;52.032;4.314;2024-01-30T01:34:09;102415.28;;;11.33
18161;BMP280;9205;52.032;4.314;2024-01-30T01:36:36;102413.56;;;11.32
18161;BMP280;9205;52.032;4.314;2024-01-30T01:39:03;102419.50;;;11.31
18161;BMP280;9205;52.032;4.314;2024-01-30T01:41:32;102427.97;;;11.26
18161;BMP280;9205;52.032;4.314;2024-01-30T01:44:00;102414.41;;;11.27
18161;BMP280;9205;52.032;4.314;2024-01-30T01:46:32;102412.75;;;11.32
18161;BMP280;9205;52.032;4.314;2024-01-30T01:49:02;102417.81;;;11.35
18161;BMP280;9205;52.032;4.314;2024-01-30T01:51:33;102417.81;;;11.38
18161;BMP280;9205;52.032;4.314;2024-01-30T01:54:04;102415.28;;;11.38
18161;BMP280;9205;52.032;4.314;2024-01-30T01:56:34;102412.75;;;11.41
18161;BMP280;9205;52.032;4.314;2024-01-30T01:59:06;102411.03;;;11.37
18161;BMP280;9205;52.032;4.314;2024-01-30T02:01:35;102411.88;;;11.37
18161;BMP280;9205;52.032;4.314;2024-01-30T02:04:03;102409.34;;;11.40
18161;BMP280;9205;52.032;4.314;2024-01-30T02:06:33;102408.50;;;11.40
18161;BMP280;9205;52.032;4.314;2024-01-30T02:09:01;102405.97;;;11.40
18161;BMP280;9205;52.032;4.314;2024-01-30T02:11:28;102404.25;;;11.39
18161;BMP280;9205;52.032;4.314;2024-01-30T02:13:57;102400.84;;;11.38
18161;BMP280;9205;52.032;4.314;2024-01-30T02:16:28;102409.34;;;11.33
18161;BMP280;9205;52.032;4.314;2024-01-30T02:18:56;102409.31;;;11.31
18161;BMP280;9205;52.032;4.314;2024-01-30T02:24:21;102409.34;;;11.33
18161;BMP280;9205;52.032;4.314;2024-01-30T02:26:48;102409.34;;;11.39
18161;BMP280;9205;52.032;4.314;2024-01-30T02:29:15;102410.19;;;11.33
18161;BMP280;9205;52.032;4.314;2024-01-30T02:31:42;102402.53;;;11.35
18161;BMP280;9205;52.032;4.314;2024-01-30T02:34:11;102399.19;;;11.33
18161;BMP280;9205;52.032;4.314;2024-01-30T02:36:42;102393.22;;;11.38
18161;BMP280;9205;52.032;4.314;2024-01-30T02:39:09;102393.22;;;11.35
18161;BMP280;9205;52.032;4.314;2024-01-30T02:41:37;102378.78;;;11.36
18161;BMP280;9205;52.032;4.314;2024-01-30T02:44:04;102366.06;;;11.40
18161;BMP280;9205;52.032;4.314;2024-01-30T02:46:31;102373.69;;;11.45
18161;BMP280;9205;52.032;4.314;2024-01-30T02:48:58;102375.41;;;11.40
18161;BMP280;9205;52.032;4.314;2024-01-30T02:51:25;102368.63;;;11.43
18161;BMP280;9205;52.032;4.314;2024-01-30T02:53:52;102369.47;;;11.36
18161;BMP280;9205;52.032;4.314;2024-01-30T02:56:19;102370.31;;;11.35
18161;BMP280;9205;52.032;4.314;2024-01-30T02:58:48;102376.25;;;11.36
18161;BMP280;9205;52.032;4.314;2024-01-30T03:01:15;102363.50;;;11.37
18161;BMP280;9205;52.032;4.314;2024-01-30T03:03:42;102376.25;;;11.36
18161;BMP280;9205;52.032;4.314;2024-01-30T03:06:09;102372.00;;;11.35
18161;BMP280;9205;52.032;4.314;2024-01-30T03:08:36;102385.56;;;11.34
18161;BMP280;9205;52.032;4.314;2024-01-30T03:11:04;102373.72;;;11.33
18161;BMP280;9205;52.032;4.314;2024-01-30T03:13:31;102376.25;;;11.34
18161;BMP280;9205;52.032;4.314;2024-01-30T03:15:59;102372.03;;;11.36
18161;BMP280;9205;52.032;4.314;2024-01-30T03:18:26;102373.72;;;11.33
18161;BMP280;9205;52.032;4.314;2024-01-30T03:20:53;102371.16;;;11.31
18161;BMP280;9205;52.032;4.314;2024-01-30T03:23:21;102376.25;;;11.36
18161;BMP280;9205;52.032;4.314;2024-01-30T03:25:48;102369.47;;;11.35
18161;BMP280;9205;52.032;4.314;2024-01-30T03:28:15;102378.81;;;11.33
18161;BMP280;9205;52.032;4.314;2024-01-30T03:30:42;102377.09;;;11.33
18161;BMP280;9205;52.032;4.314;2024-01-30T03:33:10;102373.69;;;11.37
18161;BMP280;9205;52.032;4.314;2024-01-30T03:35:37;102361.84;;;11.38
18161;BMP280;9205;52.032;4.314;2024-01-30T03:38:04;102358.44;;;11.40
18161;BMP280;9205;52.032;4.314;2024-01-30T03:40:32;102357.59;;;11.34
18161;BMP280;9205;52.032;4.314;2024-01-30T03:42:59;102361.81;;;11.35
18161;BMP280;9205;52.032;4.314;2024-01-30T03:45:26;102355.03;;;11.34
18161;BMP280;9205;52.032;4.314;2024-01-30T03:47:53;102361.84;;;11.32
18161;BMP280;9205;52.032;4.314;2024-01-30T03:50:22;102366.09;;;11.39
18161;BMP280;9205;52.032;4.314;2024-01-30T03:52:49;102365.25;;;11.40
18161;BMP280;9205;52.032;4.314;2024-01-30T03:55:16;102366.06;;;11.43
18161;BMP280;9205;52.032;4.314;2024-01-30T03:57:43;102367.78;;;11.46
18161;BMP280;9205;52.032;4.314;2024-01-30T04:00:12;102365.22;;;11.46
18161;BMP280;9205;52.032;4.314;2024-01-30T04:02:40;102360.16;;;11.52
18161;BMP280;9205;52.032;4.314;2024-01-30T04:05:08;102360.97;;;11.51
18161;BMP280;9205;52.032;4.314;2024-01-30T04:07:36;102359.31;;;11.53
18161;BMP280;9205;52.032;4.314;2024-01-30T04:10:05;102359.28;;;11.54
18161;BMP280;9205;52.032;4.314;2024-01-30T04:12:32;102356.75;;;11.53
18161;BMP280;9205;52.032;4.314;2024-01-30T04:14:59;102347.41;;;11.56
18161;BMP280;9205;52.032;4.314;2024-01-30T04:17:26;102347.41;;;11.47
18161;BMP280;9205;52.032;4.314;2024-01-30T04:19:54;102344.03;;;11.42
18161;BMP280;9205;52.032;4.314;2024-01-30T04:22:22;102344.00;;;11.44
18161;BMP280;9205;52.032;4.314;2024-01-30T04:24:50;102336.41;;;11.53
18161;BMP280;9205;52.032;4.314;2024-01-30T04:27:17;102333.84;;;11.53
18161;BMP280;9205;52.032;4.314;2024-01-30T04:29:44;102336.41;;;11.56
18161;BMP280;9205;52.032;4.314;2024-01-30T04:32:12;102335.53;;;11.58
18161;BMP280;9205;52.032;4.314;2024-01-30T04:34:39;102333.00;;;11.55
18161;BMP280;9205;52.032;4.314;2024-01-30T04:37:05;102329.59;;;11.58
18161;BMP280;9205;52.032;4.314;2024-01-30T04:39:33;102319.44;;;11.52
18161;BMP280;9205;52.032;4.314;2024-01-30T04:42:01;102319.44;;;11.55
18161;BMP280;9205;52.032;4.314;2024-01-30T04:44:28;102319.44;;;11.55
18161;BMP280;9205;52.032;4.314;2024-01-30T04:46:56;102321.09;;;11.62
18161;BMP280;9205;52.032;4.314;2024-01-30T04:49:24;102321.94;;;11.67
18161;BMP280;9205;52.032;4.314;2024-01-30T04:51:52;102327.88;;;11.64
18161;BMP280;9205;52.032;4.314;2024-01-30T04:54:19;102328.72;;;11.71
18161;BMP280;9205;52.032;4.314;2024-01-30T04:56:46;102329.53;;;11.72
18161;BMP280;9205;52.032;4.314;2024-01-30T04:59:14;102327.00;;;11.71
18161;BMP280;9205;52.032;4.314;2024-01-30T05:01:41;102330.41;;;11.70
18161;BMP280;9205;52.032;4.314;2024-01-30T05:04:09;102327.88;;;11.69
18161;BMP280;9205;52.032;4.314;2024-01-30T05:06:37;102330.41;;;11.70
18161;BMP280;9205;52.032;4.314;2024-01-30T05:09:04;102327.00;;;11.71
18161;BMP280;9205;52.032;4.314;2024-01-30T05:11:32;102336.34;;;11.72
18161;BMP280;9205;52.032;4.314;2024-01-30T05:14:03;102329.53;;;11.77
18161;BMP280;9205;52.032;4.314;2024-01-30T05:16:32;102326.16;;;11.73
18161;BMP280;9205;52.032;4.314;2024-01-30T05:18:59;102330.41;;;11.72
18161;BMP280;9205;52.032;4.314;2024-01-30T05:21:26;102332.09;;;11.68
18161;BMP280;9205;52.032;4.314;2024-01-30T05:23:53;102326.16;;;11.72
18161;BMP280;9205;52.032;4.314;2024-01-30T05:26:20;102331.25;;;11.72
18161;BMP280;9205;52.032;4.314;2024-01-30T05:28:48;102322.78;;;11.69
18161;BMP280;9205;52.032;4.314;2024-01-30T05:31:15;102322.78;;;11.72
18161;BMP280;9205;52.032;4.314;2024-01-30T05:33:44;102328.72;;;11.72
18161;BMP280;9205;52.032;4.314;2024-01-30T05:36:12;102318.50;;;11.73
18161;BMP280;9205;52.032;4.314;2024-01-30T05:38:39;102328.69;;;11.78
18161;BMP280;9205;52.032;4.314;2024-01-30T05:41:08;102327.81;;;11.80
18161;BMP280;9205;52.032;4.314;2024-01-30T05:43:35;102321.91;;;11.75
18161;BMP280;9205;52.032;4.314;2024-01-30T05:46:02;102325.31;;;11.77
18161;BMP280;9205;52.032;4.314;2024-01-30T05:48:29;102326.16;;;11.72
18161;BMP280;9205;52.032;4.314;2024-01-30T05:50:58;102335.50;;;11.70
18161;BMP280;9205;52.032;4.314;2024-01-30T05:53:26;102332.97;;;11.66
18161;BMP280;9205;52.032;4.314;2024-01-30T05:55:53;102331.28;;;11.62
18161;BMP280;9205;52.032;4.314;2024-01-30T05:58:20;102331.28;;;11.59
18161;BMP280;9205;52.032;4.314;2024-01-30T06:00:48;102329.59;;;11.61
18161;BMP280;9205;52.032;4.314;2024-01-30T06:03:15;102329.63;;;11.55
18161;BMP280;9205;52.032;4.314;2024-01-30T06:05:42;102337.22;;;11.58
18161;BMP280;9205;52.032;4.314;2024-01-30T06:08:10;102337.22;;;11.56
18161;BMP280;9205;52.032;4.314;2024-01-30T06:10:38;102334.69;;;11.58
18161;BMP280;9205;52.032;4.314;2024-01-30T06:13:05;102334.69;;;11.56
18161;BMP280;9205;52.032;4.314;2024-01-30T06:15:32;102340.63;;;11.57
18161;BMP280;9205;52.032;4.314;2024-01-30T06:17:59;102344.88;;;11.56
18161;BMP280;9205;52.032;4.314;2024-01-30T06:20:26;102346.59;;;11.56
18161;BMP280;9205;52.032;4.314;2024-01-30T06:22:54;102334.69;;;11.58
18161;BMP280;9205;52.032;4.314;2024-01-30T06:25:22;102332.16;;;11.59
18161;BMP280;9205;52.032;4.314;2024-01-30T06:27:49;102347.38;;;11.67
18161;BMP280;9205;52.032;4.314;2024-01-30T06:30:17;102338.06;;;11.69
18161;BMP280;9205;52.032;4.314;2024-01-30T06:32:44;102349.06;;;11.69
18161;BMP280;9205;52.032;4.314;2024-01-30T06:35:11;102348.25;;;11.72
18161;BMP280;9205;52.032;4.314;2024-01-30T06:37:39;102349.94;;;11.74
18161;BMP280;9205;52.032;4.314;2024-01-30T06:40:07;102357.53;;;11.77
18161;BMP280;9205;52.032;4.314;2024-01-30T06:42:36;102349.91;;;11.78
18161;BMP280;9205;52.032;4.314;2024-01-30T06:45:04;102354.97;;;11.81
18161;BMP280;9205;52.032;4.314;2024-01-30T06:47:31;102349.91;;;11.84
18161;BMP280;9205;52.032;4.314;2024-01-30T06:49:59;102349.88;;;11.86
18161;BMP280;9205;52.032;4.314;2024-01-30T06:52:27;102355.81;;;11.88
18161;BMP280;9205;52.032;4.314;2024-01-30T06:54:55;102349.03;;;11.84
18161;BMP280;9205;52.032;4.314;2024-01-30T06:57:22;102351.59;;;11.85
18161;BMP280;9205;52.032;4.314;2024-01-30T06:59:53;102354.13;;;11.82
18161;BMP280;9205;52.032;4.314;2024-01-30T07:02:20;102352.41;;;11.87
18161;BMP280;9205;52.032;4.314;2024-01-30T07:04:47;102356.66;;;11.91
18161;BMP280;9205;52.032;4.314;2024-01-30T07:07:15;102364.31;;;11.90
18161;BMP280;9205;52.032;4.314;2024-01-30T07:09:42;102359.22;;;11.88
18161;BMP280;9205;52.032;4.314;2024-01-30T07:12:10;102366.88;;;11.85
18161;BMP280;9205;52.032;4.314;2024-01-30T07:14:37;102366.00;;;11.91
18161;BMP280;9205;52.032;4.314;2024-01-30T07:17:06;102365.13;;;11.96
18161;BMP280;9205;52.032;4.314;2024-01-30T07:19:33;102359.16;;;11.99
18161;BMP280;9205;52.032;4.314;2024-01-30T07:22:01;102363.41;;;11.95
18161;BMP280;9205;52.032;4.314;2024-01-30T07:24:28;102374.47;;;12.00
18161;BMP280;9205;52.032;4.314;2024-01-30T07:26:55;102380.41;;;12.01
18161;BMP280;9205;52.032;4.314;2024-01-30T07:29:22;102377.88;;;11.95
18161;BMP280;9205;52.032;4.314;2024-01-30T07:31:50;102383.81;;;11.98
18161;BMP280;9205;52.032;4.314;2024-01-30T07:34:18;102399.09;;;11.98
18161;BMP280;9205;52.032;4.314;2024-01-30T07:36:45;102391.44;;;11.98
18161;BMP280;9205;52.032;4.314;2024-01-30T07:39:13;102395.69;;;12.02
18161;BMP280;9205;52.032;4.314;2024-01-30T07:41:40;102388.06;;;12.02
18161;BMP280;9205;52.032;4.314;2024-01-30T07:44:07;102391.44;;;12.03
18161;BMP280;9205;52.032;4.314;2024-01-30T07:46:34;102393.97;;;12.03
18161;BMP280;9205;52.032;4.314;2024-01-30T07:49:01;102397.38;;;12.09
18161;BMP280;9205;52.032;4.314;2024-01-30T07:51:30;102402.47;;;12.09
18161;BMP280;9205;52.032;4.314;2024-01-30T07:53:58;102409.22;;;12.10
18161;BMP280;9205;52.032;4.314;2024-01-30T07:56:26;102408.38;;;12.07
18161;BMP280;9205;52.032;4.314;2024-01-30T07:58:53;102414.34;;;12.07
18161;BMP280;9205;52.032;4.314;2024-01-30T08:01:20;102415.19;;;12.08
18161;BMP280;9205;52.032;4.314;2024-01-30T08:03:47;102421.97;;;12.10
18161;BMP280;9205;52.032;4.314;2024-01-30T08:06:14;102432.16;;;12.10
18161;BMP280;9205;52.032;4.314;2024-01-30T08:08:42;102422.00;;;12.07
18161;BMP280;9205;52.032;4.314;2024-01-30T08:11:10;102436.44;;;12.08
18161;BMP280;9205;52.032;4.314;2024-01-30T08:13:37;102434.69;;;12.10
18161;BMP280;9205;52.032;4.314;2024-01-30T08:16:05;102429.59;;;12.13
18161;BMP280;9205;52.032;4.314;2024-01-30T08:18:32;102430.47;;;12.15
18161;BMP280;9205;52.032;4.314;2024-01-30T08:21:00;102432.16;;;12.16
18161;BMP280;9205;52.032;4.314;2024-01-30T08:23:27;102422.84;;;12.11
18161;BMP280;9205;52.032;4.314;2024-01-30T08:25:56;102433.84;;;12.11
18161;BMP280;9205;52.032;4.314;2024-01-30T08:28:23;102432.16;;;12.15
18161;BMP280;9205;52.032;4.314;2024-01-30T08:30:52;102438.94;;;12.20
18161;BMP280;9205;52.032;4.314;2024-01-30T08:33:19;102438.94;;;12.19
18161;BMP280;9205;52.032;4.314;2024-01-30T08:35:46;102438.94;;;12.22
18161;BMP280;9205;52.032;4.314;2024-01-30T08:38:14;102448.28;;;12.24
18161;BMP280;9205;52.032;4.314;2024-01-30T08:40:41;102442.28;;;12.30
18161;BMP280;9205;52.032;4.314;2024-01-30T08:43:10;102434.66;;;12.24
18161;BMP280;9205;52.032;4.314;2024-01-30T08:45:38;102428.72;;;12.25
18161;BMP280;9205;52.032;4.314;2024-01-30T08:48:07;102433.84;;;12.20
18161;BMP280;9205;52.032;4.314;2024-01-30T08:50:35;102427.88;;;12.21
18161;BMP280;9205;52.032;4.314;2024-01-30T08:53:02;102431.25;;;12.29
18161;BMP280;9205;52.032;4.314;2024-01-30T08:55:30;102435.53;;;12.29
18161;BMP280;9205;52.032;4.314;2024-01-30T08:57:58;102443.19;;;12.24
18161;BMP280;9205;52.032;4.314;2024-01-30T09:00:28;102446.59;;;12.17
18161;BMP280;9205;52.032;4.314;2024-01-30T09:02:56;102452.53;;;12.21
18161;BMP280;9205;52.032;4.314;2024-01-30T09:05:23;102465.28;;;12.21
18161;BMP280;9205;52.032;4.314;2024-01-30T09:07:51;102464.44;;;12.17
18161;BMP280;9205;52.032;4.314;2024-01-30T09:10:19;102465.28;;;12.16
18161;BMP280;9205;52.032;4.314;2024-01-30T09:12:46;102475.44;;;12.19
18161;BMP280;9205;52.032;4.314;2024-01-30T09:15:14;102477.16;;;12.20
18161;BMP280;9205;52.032;4.314;2024-01-30T09:17:43;102481.44;;;12.14
18161;BMP280;9205;52.032;4.314;2024-01-30T09:20:11;102500.97;;;12.04
18161;BMP280;9205;52.032;4.314;2024-01-30T09:22:39;102494.22;;;11.94
18161;BMP280;9205;52.032;4.314;2024-01-30T09:25:07;102502.66;;;11.92
18161;BMP280;9205;52.032;4.314;2024-01-30T09:27:35;102505.25;;;11.75
18161;BMP280;9205;52.032;4.314;2024-01-30T09:30:02;102506.09;;;11.66
18161;BMP280;9205;52.032;4.314;2024-01-30T09:32:30;102488.25;;;11.43
18161;BMP280;9205;52.032;4.314;2024-01-30T09:34:59;102493.34;;;11.48
18161;BMP280;9205;52.032;4.314;2024-01-30T09:37:27;102534.88;;;11.35
18161;BMP280;9205;52.032;4.314;2024-01-30T09:39:54;102521.31;;;11.28
18161;BMP280;9205;52.032;4.314;2024-01-30T09:42:33;102524.69;;;11.35
18161;BMP280;9205;52.032;4.314;2024-01-30T09:45:02;102522.13;;;11.23
18161;BMP280;9205;52.032;4.314;2024-01-30T09:47:32;102542.47;;;11.26
18161;BMP280;9205;52.032;4.314;2024-01-30T09:50:01;102530.59;;;11.17
18161;BMP280;9205;52.032;4.314;2024-01-30T09:52:32;102532.28;;;11.15
18161;BMP280;9205;52.032;4.314;2024-01-30T09:55:00;102528.88;;;11.06
18161;BMP280;9205;52.032;4.314;2024-01-30T09:57:28;102539.00;;;10.98
18161;BMP280;9205;52.032;4.314;2024-01-30T09:59:56;102536.53;;;11.09
18161;BMP280;9205;52.032;4.314;2024-01-30T10:02:23;102534.78;;;11.00
18161;BMP280;9205;52.032;4.314;2024-01-30T10:04:52;102539.91;;;11.03
18161;BMP280;9205;52.032;4.314;2024-01-30T10:07:21;102534.78;;;11.06
18161;BMP280;9205;52.032;4.314;2024-01-30T10:09:52;102521.22;;;10.95
18161;BMP280;9205;52.032;4.314;2024-01-30T10:12:21;102530.53;;;10.98
18161;BMP280;9205;52.032;4.314;2024-01-30T10:14:49;102536.47;;;10.94
18161;BMP280;9205;52.032;4.314;2024-01-30T10:17:17;102553.41;;;10.92
18161;BMP280;9205;52.032;4.314;2024-01-30T10:19:47;102546.59;;;10.88
18161;BMP280;9205;52.032;4.314;2024-01-30T10:22:15;102547.44;;;10.84
18161;BMP280;9205;52.032;4.314;2024-01-30T10:24:45;102544.06;;;10.81
18161;BMP280;9205;52.032;4.314;2024-01-30T10:27:12;102546.56;;;10.70
18161;BMP280;9205;52.032;4.314;2024-01-30T10:29:40;102551.59;;;10.67
18161;BMP280;9205;52.032;4.314;2024-01-30T10:32:07;102549.94;;;10.69
18161;BMP280;9205;52.032;4.314;2024-01-30T10:34:35;102566.03;;;10.67
18161;BMP280;9205;52.032;4.314;2024-01-30T10:37:09;102560.00;;;10.57
18161;BMP280;9205;52.032;4.314;2024-01-30T10:39:39;102570.16;;;10.48
18161;BMP280;9205;52.032;4.314;2024-01-30T10:42:12;102565.81;;;10.37
18161;BMP280;9205;52.032;4.314;2024-01-30T10:44:56;102560.78;;;10.41
18161;BMP280;9205;52.032;4.314;2024-01-30T10:47:29;102562.44;;;10.38
18161;BMP280;9205;52.032;4.314;2024-01-30T10:49:57;102581.88;;;10.28
18161;BMP280;9205;52.032;4.314;2024-01-30T10:52:26;102574.09;;;10.08
18161;BMP280;9205;52.032;4.314;2024-01-30T10:54:56;102571.53;;;10.03
18161;BMP280;9205;52.032;4.314;2024-01-30T10:57:27;102572.38;;;10.04
18161;BMP280;9205;52.032;4.314;2024-01-30T10:59:58;102588.34;;;9.94
18161;BMP280;9205;52.032;4.314;2024-01-30T11:02:27;102576.59;;;10.02
18161;BMP280;9205;52.032;4.314;2024-01-30T11:04:58;102571.53;;;10.05
18161;BMP280;9205;52.032;4.314;2024-01-30T11:07:27;102576.69;;;10.13
18161;BMP280;9205;52.032;4.314;2024-01-30T11:10:01;102581.72;;;10.08
18161;BMP280;9205;52.032;4.314;2024-01-30T11:12:32;102576.72;;;10.16
18161;BMP280;9205;52.032;4.314;2024-01-30T11:15:06;102573.38;;;10.26
18161;BMP280;9205;52.032;4.314;2024-01-30T11:17:43;102601.31;;;10.23
18161;BMP280;9205;52.032;4.314;2024-01-30T11:20:11;102578.50;;;10.28
18161;BMP280;9205;52.032;4.314;2024-01-30T11:22:45;102581.03;;;10.29
18161;BMP280;9205;52.032;4.314;2024-01-30T11:25:15;102570.03;;;10.30
18161;BMP280;9205;52.032;4.314;2024-01-30T11:27:45;102581.91;;;10.34
18161;BMP280;9205;52.032;4.314;2024-01-30T11:30:23;102578.56;;;10.38
18161;BMP280;9205;52.032;4.314;2024-01-30T11:33:05;102584.44;;;10.31
18161;BMP280;9205;52.032;4.314;2024-01-30T11:38:22;102585.41;;;10.48
18161;BMP280;9205;52.032;4.314;2024-01-30T11:40:52;102580.25;;;10.39
18161;BMP280;9205;52.032;4.314;2024-01-30T11:43:22;102594.72;;;10.48
18161;BMP280;9205;52.032;4.314;2024-01-30T11:45:50;102592.09;;;10.36
18161;BMP280;9205;52.032;4.314;2024-01-30T11:48:18;102592.97;;;10.41
18161;BMP280;9205;52.032;4.314;2024-01-30T11:50:46;102593.84;;;10.44
18161;BMP280;9205;52.032;4.314;2024-01-30T11:53:14;102593.78;;;10.37
18161;BMP280;9205;52.032;4.314;2024-01-30T11:55:41;102600.56;;;10.35
18161;BMP280;9205;52.032;4.314;2024-01-30T11:58:15;102596.38;;;10.46
18161;BMP280;9205;52.032;4.314;2024-01-30T12:00:55;102599.72;;;10.39
18161;BMP280;9205;52.032;4.314;2024-01-30T12:03:23;102611.63;;;10.46
18161;BMP280;9205;52.032;4.314;2024-01-30T12:05:56;102602.28;;;10.43
18161;BMP280;9205;52.032;4.314;2024-01-30T12:08:24;102605.75;;;10.51
18161;BMP280;9205;52.032;4.314;2024-01-30T12:10:57;102605.75;;;10.50
18161;BMP280;9205;52.032;4.314;2024-01-30T12:13:25;102615.91;;;10.51
18161;BMP280;9205;52.032;4.314;2024-01-30T12:15:55;102609.16;;;10.53
18161;BMP280;9205;52.032;4.314;2024-01-30T12:18:23;102610.84;;;10.57
18161;BMP280;9205;52.032;4.314;2024-01-30T12:20:59;102608.28;;;10.50
18161;BMP280;9205;52.032;4.314;2024-01-30T12:23:27;102611.59;;;10.40
18161;BMP280;9205;52.032;4.314;2024-01-30T12:25:56;102622.63;;;10.43
18161;BMP280;9205;52.032;4.314;2024-01-30T12:28:27;102619.25;;;10.44
18161;BMP280;9205;52.032;4.314;2024-01-30T12:31:07;102614.13;;;10.38
18161;BMP280;9205;52.032;4.314;2024-01-30T12:33:36;102615.00;;;10.45
18161;BMP280;9205;52.032;4.314;2024-01-30T12:36:05;102614.13;;;10.41
18161;BMP280;9205;52.032;4.314;2024-01-30T12:38:33;102632.78;;;10.40
18161;BMP280;9205;52.032;4.314;2024-01-30T12:41:01;102633.59;;;10.38
18161;BMP280;9205;52.032;4.314;2024-01-30T12:43:31;102627.63;;;10.34
18161;BMP280;9205;52.032;4.314;2024-01-30T12:46:05;102634.47;;;10.40
18161;BMP280;9205;52.032;4.314;2024-01-30T12:48:32;102634.44;;;10.35
18161;BMP280;9205;52.032;4.314;2024-01-30T12:51:01;102632.69;;;10.30
18161;BMP280;9205;52.032;4.314;2024-01-30T12:53:28;102623.31;;;10.21
18161;BMP280;9205;52.032;4.314;2024-01-30T12:55:56;102634.31;;;10.22
18161;BMP280;9205;52.032;4.314;2024-01-30T12:58:24;102627.53;;;10.19
18161;BMP280;9205;52.032;4.314;2024-01-30T13:00:54;102636.84;;;10.17
18161;BMP280;9205;52.032;4.314;2024-01-30T13:03:24;102639.38;;;10.17
18161;BMP280;9205;52.032;4.314;2024-01-30T13:05:51;102639.31;;;10.09
18161;BMP280;9205;52.032;4.314;2024-01-30T13:08:19;102635.03;;;10.03
18161;BMP280;9205;52.032;4.314;2024-01-30T13:10:46;102644.31;;;10.03
18161;BMP280;9205;52.032;4.314;2024-01-30T13:13:15;102642.63;;;10.06
18161;BMP280;9205;52.032;4.314;2024-01-30T13:15:48;102634.97;;;10.00
18161;BMP280;9205;52.032;4.314;2024-01-30T13:18:16;102653.50;;;9.93
18161;BMP280;9205;52.032;4.314;2024-01-30T13:20:45;102650.16;;;9.97
18161;BMP280;9205;52.032;4.314;2024-01-30T13:23:13;102661.25;;;10.01
18161;BMP280;9205;52.032;4.314;2024-01-30T13:25:43;102657.59;;;9.81
18161;BMP280;9205;52.032;4.314;2024-01-30T13:28:11;102661.91;;;9.86
18161;BMP280;9205;52.032;4.314;2024-01-30T13:30:38;102664.53;;;9.94
18161;BMP280;9205;52.032;4.314;2024-01-30T13:33:06;102664.63;;;10.00
18161;BMP280;9205;52.032;4.314;2024-01-30T13:35:39;102664.63;;;10.03
18161;BMP280;9205;52.032;4.314;2024-01-30T13:38:08;102670.44;;;9.96
18161;BMP280;9205;52.032;4.314;2024-01-30T13:40:39;102659.44;;;9.94
18161;BMP280;9205;52.032;4.314;2024-01-30T13:43:06;102679.78;;;9.94
18161;BMP280;9205;52.032;4.314;2024-01-30T13:45:34;102679.78;;;9.94
18161;BMP280;9205;52.032;4.314;2024-01-30T13:48:02;102675.53;;;9.94
18161;BMP280;9205;52.032;4.314;2024-01-30T13:50:30;102674.53;;;9.82
18161;BMP280;9205;52.032;4.314;2024-01-30T13:53:04;102674.53;;;9.82
18161;BMP280;9205;52.032;4.314;2024-01-30T13:55:34;102674.53;;;9.82
18161;BMP280;9205;52.032;4.314;2024-01-30T13:58:02;102679.63;;;9.80
18161;BMP280;9205;52.032;4.314;2024-01-30T14:00:30;102686.34;;;9.77
18161;BMP280;9205;52.032;4.314;2024-01-30T14:02:58;102701.47;;;9.68
18161;BMP280;9205;52.032;4.314;2024-01-30T14:05:30;102710.75;;;9.64
18161;BMP280;9205;52.032;4.314;2024-01-30T14:08:12;102716.69;;;9.66
18161;BMP280;9205;52.032;4.314;2024-01-30T14:10:45;102711.63;;;9.69
18161;BMP280;9205;52.032;4.314;2024-01-30T14:13:13;102724.38;;;9.71
18161;BMP280;9205;52.032;4.314;2024-01-30T14:15:40;102721.84;;;9.74
18161;BMP280;9205;52.032;4.314;2024-01-30T14:18:09;102720.28;;;9.85
18161;BMP280;9205;52.032;4.314;2024-01-30T14:20:39;102726.91;;;9.71